首页
METAR-TAF:

METAR-TAF

机场 :

卡斯特爾, 法国

纬度: 43-33-25N, 经度: 2-17-21E, 海拔: 239米

当前天气观测

该预报发布于18分钟前的11:00 UTC
风速16节,风向东转东南
温度 36°C
湿度 27%
气压 1020 hPa
能见度10公里或以上
1500米以下无云,无积雨云

METAR: LFCK 271100Z AUTO 11016KT CAVOK 36/14 Q1020 TEMPO 12018G28KT

时间: 13:18 (11:18 UTC)

预报

该预报发布于3小时和18分钟前的08:00 UTC
预报有效从27日的 09点(UTC)到 27日的 18点(UTC)
风速18节,风向东转东南
能见度10公里或以上
1500米以下无云,无积雨云
几率 30% :
短暂存在
从 27日的 09点(UTC)到 27日的 12点(UTC)
风速18节,风向东转东南,有时为28节阵风

TAF: LFCK 270800Z 2709/2718 12018KT CAVOK PROB30 TEMPO 2709/2712 12018G28KT

超过4000个机场的气象观测和天气预报(METAR&TAF报告)。

可查询的气象台以黄色和红色小点在地图上表示。

将鼠标移到小点上方,可查看气象台名称。

然后点击查看天气观测和预报。

如需切换地图:点击带黑十字的绿色按钮放大地图;点击带横线的绿色按钮缩小地图;或者点击绿色箭头查看邻近地区的地图。


METAR-TAF: